Maran Poseidon — SVAV3 — position and weather

sailwx.info

Track history (hours):
 
Tides and Currents Weather Stations Pressure Air Temp Water Temp Dewpoint Dewpoint Depression Visibility Wind Speed Wind Dir Waves Ship Positions

Maran Poseidon

Last reported at 2016-Apr-09 13:09 UTC. Time now 2016-Apr-30 20:44 UTC.
Position N 32°41' W 118°13'.
Warning: this ship's position is 21 days out of date.

Length 274 m; draft 16.7 m.

Type: Tanker. MMSI: 240959000.

Date/timePositionNaut miles runAvg speedWind from/ knotsBaromVisibWave heightAir tempDewpointWater temp
2016-Apr-09 13:09N 32°41' W 118°13'711.7
2016-Apr-09 12:34N 32°48' W 118°12'2 2.1
2016-Apr-09 11:34N 32°50' W 118°12'0 0.5
2016-Apr-09 10:33N 32°50' W 118°12'1 0.6
2016-Apr-09 09:33N 32°49' W 118°12'0 0.5
2016-Apr-09 08:34N 32°49' W 118°12'0 0.2
2016-Apr-09 07:33N 32°49' W 118°12'2 1.7
2016-Apr-09 06:33N 32°47' W 118°11'1211.6
2016-Apr-09 05:33N 32°37' W 118°18'87 2.0
2016-Apr-07 09:04N 31°10' W 118°23'1 1.3
2016-Apr-07 08:33N 31°11' W 118°23'2 2.1
2016-Apr-07 07:33N 31°12' W 118°25'1 1.2
2016-Apr-07 06:34N 31°13' W 118°26'2 1.9
2016-Apr-07 05:34N 31°14' W 118°28'1 1.2
2016-Apr-07 04:22N 31°15' W 118°29'1 1.6
2016-Apr-07 03:32N 31°16' W 118°30'2 2.0
2016-Apr-07 02:33N 31°17' W 118°31'2 2.4
2016-Apr-07 01:33N 31°19' W 118°34'2 2.0
2016-Apr-07 00:34N 31°20' W 118°36'3 2.5
2016-Apr-06 23:34N 31°21' W 118°38'2 2.3
2016-Apr-06 22:33N 31°22' W 118°40'2 2.0
2016-Apr-06 21:31N 31°24' W 118°42'3 2.6
2016-Apr-06 20:33N 31°25' W 118°45'3 2.9
2016-Apr-06 19:33N 31°27' W 118°48'5 5.4
2016-Apr-06 18:34N 31°30' W 118°53'5 5.2
2016-Apr-06 17:33N 31°33' W 118°58'3 2.9
2016-Apr-06 16:34N 31°34' W 119°01'2 2.3
2016-Apr-06 15:33N 31°35' W 119°03'2 2.0
2016-Apr-06 14:33N 31°36' W 119°05'2 2.1
2016-Apr-06 13:34N 31°37' W 119°08'2 1.9
2016-Apr-06 12:31N 31°37' W 119°10'2 1.8
2016-Apr-06 11:33N 31°38' W 119°11'2 1.8
2016-Apr-06 10:34N 31°39' W 119°13'2 2.1
2016-Apr-06 09:34N 31°39' W 119°16'2 2.2
2016-Apr-06 08:34N 31°40' W 119°18'2 2.0
2016-Apr-06 07:33N 31°41' W 119°20'2 1.8
2016-Apr-06 06:34N 31°42' W 119°22'2 1.7
2016-Apr-06 05:33N 31°43' W 119°24'2 1.5
2016-Apr-06 04:34N 31°44' W 119°25'2 1.7
2016-Apr-06 03:34N 31°45' W 119°26'2 1.9
2016-Apr-06 02:33N 31°47' W 119°28'2 2.0
2016-Apr-06 01:33N 31°48' W 119°29'2 1.9
2016-Apr-06 00:33N 31°50' W 119°30'2 1.9
2016-Apr-05 23:34N 31°51' W 119°32'2 2.0
2016-Apr-05 22:34N 31°53' W 119°33'2 2.1
2016-Apr-05 21:33N 31°54' W 119°35'2 2.3
2016-Apr-05 20:33N 31°56' W 119°37'3 2.9
2016-Apr-05 19:34N 31°58' W 119°39'3 2.8
2016-Apr-05 18:34N 31°60' W 119°42'3 2.9
2016-Apr-05 17:34N 32°02' W 119°44'4 4.4
2016-Apr-05 16:34N 32°06' W 119°47'6 6.1
2016-Apr-05 15:33N 32°11' W 119°51'3 2.9
2016-Apr-05 14:34N 32°13' W 119°53'6 2.4
2016-Apr-05 12:06N 32°17' W 119°58'2 2.9
2016-Apr-05 11:28N 32°18' W 119°60'2 2.5
2016-Apr-05 10:34N 32°19' W 120°02'4 3.8
2016-Apr-05 09:33N 32°23' W 120°03'3 2.2
2016-Apr-05 08:22N 32°20' W 120°03'4 4.7
2016-Apr-05 07:34N 32°17' W 119°59'2 2.0
2016-Apr-05 06:34N 32°16' W 119°58'2 2.0
2016-Apr-05 05:34N 32°18' W 119°58'3 2.5
2016-Apr-05 04:30N 32°20' W 119°56'3013.7
2016-Apr-05 02:18N 32°22' W 119°20'1013.6
2016-Apr-05 01:33N 32°22' W 119°08'1413.8
2016-Apr-05 00:34N 32°22' W 118°52'1413.8
2016-Apr-04 23:34N 32°28' W 118°37'1414.0
2016-Apr-04 22:33N 32°35' W 118°23'1313.5
2016-Apr-04 21:33N 32°40' W 118°08'1312.6
2016-Apr-04 20:34N 32°52' W 118°05'1313.1
2016-Apr-04 19:33N 33°05' W 118°06'1211.9
2016-Apr-04 18:33N 33°17' W 118°06'1212.0
2016-Apr-04 17:33N 33°29' W 118°11'1110.6
2016-Apr-04 16:33N 33°39' W 118°12'5 4.7
2016-Apr-04 15:31N 33°44' W 118°13'0 0.0
2016-Apr-04 14:31N 33°44' W 118°13'0 0.1
2016-Apr-04 13:31N 33°44' W 118°13'0 0.1
2016-Apr-04 12:31N 33°44' W 118°13'0 0.1
2016-Apr-04 11:31N 33°44' W 118°13'0 0.0
2016-Apr-04 10:31N 33°44' W 118°13'0 0.0
2016-Apr-04 09:31N 33°44' W 118°13'0 0.1
2016-Apr-04 08:31N 33°44' W 118°13'0 0.1
2016-Apr-04 07:31N 33°44' W 118°13'0 0.0
2016-Apr-04 06:31N 33°44' W 118°13'0 0.1
2016-Apr-04 05:31N 33°44' W 118°13'0 0.0
2016-Apr-04 04:31N 33°44' W 118°13'0 0.0
2016-Apr-04 03:31N 33°44' W 118°13'0 0.1
2016-Apr-04 02:31N 33°44' W 118°13'0 0.1
2016-Apr-04 01:31N 33°44' W 118°13'0 0.0
2016-Apr-04 00:31N 33°44' W 118°13'0 0.0
2016-Apr-03 23:31N 33°44' W 118°13'0 0.1
2016-Apr-03 22:31N 33°44' W 118°13'0 0.0
2016-Apr-03 21:31N 33°44' W 118°13'0 0.0
2016-Apr-03 20:31N 33°44' W 118°13'0 0.0
2016-Apr-03 19:31N 33°44' W 118°13'0 0.0
2016-Apr-03 18:31N 33°44' W 118°13'0 0.0
2016-Apr-03 17:31N 33°44' W 118°13'0 0.1
2016-Apr-03 16:31N 33°44' W 118°13'0 0.1
2016-Apr-03 15:31N 33°44' W 118°13'0 0.1
2016-Apr-03 14:31N 33°44' W 118°13'0 0.0
2016-Apr-03 13:31N 33°44' W 118°13'0 0.1
2016-Apr-03 12:31N 33°44' W 118°13'0 0.1
2016-Apr-03 11:31N 33°44' W 118°13'0 0.0
2016-Apr-03 10:31N 33°44' W 118°13'0 0.0
2016-Apr-03 09:31N 33°44' W 118°13'0 0.1
2016-Apr-03 08:31N 33°44' W 118°13'0 0.1
2016-Apr-03 07:31N 33°44' W 118°13'0 0.1
2016-Apr-03 06:34N 33°44' W 118°13'0 0.1
2016-Apr-03 05:34N 33°44' W 118°13'0 0.1
2016-Apr-03 04:34N 33°44' W 118°13'0 0.1
2016-Apr-03 03:33N 33°44' W 118°13'0 0.1
2016-Apr-03 02:34N 33°44' W 118°13'0 0.1
2016-Apr-03 01:34N 33°44' W 118°13'0 0.0
2016-Apr-03 00:33N 33°44' W 118°13'0 0.1
2016-Apr-02 23:34N 33°44' W 118°13'0 0.0
2016-Apr-02 22:33N 33°44' W 118°13'0 0.1
2016-Apr-02 21:34N 33°44' W 118°13'0 0.1
2016-Apr-02 20:34N 33°44' W 118°13'0 0.1
2016-Apr-02 19:34N 33°44' W 118°13'0 0.1
2016-Apr-02 18:33N 33°44' W 118°13'0 0.1
2016-Apr-02 17:33N 33°44' W 118°13'0 0.1
2016-Apr-02 16:34N 33°44' W 118°13'0 0.2
2016-Apr-02 15:34N 33°44' W 118°13'1 0.6
2016-Apr-02 14:33N 33°44' W 118°13'6 5.7
2016-Apr-02 13:34N 33°38' W 118°12'6 5.8
2016-Apr-02 12:34N 33°36' W 118°19'7 6.9
2016-Apr-02 11:34N 33°39' W 118°26'7 6.6
2016-Apr-02 10:33N 33°44' W 118°30'8 7.8
2016-Apr-02 09:33N 33°52' W 118°30'3 2.9
2016-Apr-02 08:34N 33°55' W 118°28'1 1.2
2016-Apr-02 07:33N 33°54' W 118°27'0 0.1
2016-Apr-02 06:33N 33°54' W 118°27'0 0.0
2016-Apr-02 05:33N 33°54' W 118°27'0 0.0
2016-Apr-02 04:33N 33°54' W 118°27'0 0.0
2016-Apr-02 03:33N 33°54' W 118°27'0 0.0
2016-Apr-02 02:33N 33°54' W 118°27'0 0.0
2016-Apr-02 01:33N 33°54' W 118°27'0 0.0
2016-Apr-02 00:30N 33°54' W 118°27'0 0.0
2016-Apr-01 23:33N 33°54' W 118°27'0 0.0
2016-Apr-01 22:33N 33°54' W 118°27'0 0.0
2016-Apr-01 21:33N 33°54' W 118°27'0 0.0
2016-Apr-01 20:30N 33°54' W 118°27'0 0.0
2016-Apr-01 19:33N 33°54' W 118°27'0 0.0
2016-Apr-01 18:33N 33°54' W 118°27'0 0.0
2016-Apr-01 17:33N 33°54' W 118°27'0 0.0
2016-Apr-01 16:33N 33°54' W 118°27'0 0.0
2016-Apr-01 15:33N 33°54' W 118°27'0 0.0
2016-Apr-01 14:33N 33°54' W 118°27'0 0.0
2016-Apr-01 13:33N 33°54' W 118°27'0 0.0
2016-Apr-01 12:33N 33°54' W 118°27'0 0.0
2016-Apr-01 11:33N 33°54' W 118°27'0 0.0
2016-Apr-01 10:33N 33°54' W 118°27'0 0.0
2016-Apr-01 09:33N 33°54' W 118°27'0 0.0
2016-Apr-01 08:30N 33°54' W 118°27'0 0.0
2016-Apr-01 07:33N 33°54' W 118°27'0 0.0
2016-Apr-01 06:33N 33°54' W 118°27'0 0.0
2016-Apr-01 05:33N 33°54' W 118°27'0 0.0
2016-Apr-01 04:33N 33°54' W 118°27'0 0.0
2016-Apr-01 03:33N 33°54' W 118°27'0 0.0
2016-Apr-01 02:33N 33°54' W 118°27'0 0.0
2016-Apr-01 01:33N 33°54' W 118°27'0 0.0
2016-Apr-01 00:33N 33°54' W 118°27'0 0.0
2016-Mar-31 23:33N 33°54' W 118°27'0 0.0
2016-Mar-31 22:33N 33°54' W 118°27'0 0.0
2016-Mar-31 21:33N 33°54' W 118°27'0 0.0
2016-Mar-31 20:33N 33°54' W 118°27'0 0.0
2016-Mar-31 19:33N 33°54' W 118°27'0 0.0
2016-Mar-31 18:33N 33°54' W 118°27'0 0.0
2016-Mar-31 17:33N 33°54' W 118°27'0 0.0
2016-Mar-31 16:33N 33°54' W 118°27'1 1.0
2016-Mar-31 15:33N 33°53' W 118°28'2 1.9
2016-Mar-31 14:31N 33°55' W 118°29'0 0.1
2016-Mar-31 13:31N 33°55' W 118°29'0 0.0
2016-Mar-31 12:28N 33°55' W 118°29'0 0.1
2016-Mar-31 11:31N 33°55' W 118°29'0 0.0
2016-Mar-31 10:31N 33°55' W 118°29'0 0.0
2016-Mar-31 09:31N 33°55' W 118°29'0 0.1
2016-Mar-31 08:31N 33°55' W 118°29'0 0.2
2016-Mar-31 07:31N 33°55' W 118°29'0 0.1
2016-Mar-31 06:31N 33°54' W 118°29'0 0.0
2016-Mar-31 05:31N 33°54' W 118°29'0 0.1
2016-Mar-31 04:31N 33°55' W 118°29'0 0.0
2016-Mar-31 03:31N 33°55' W 118°29'0 0.1
2016-Mar-31 02:31N 33°54' W 118°29'0 0.0
2016-Mar-31 01:25N 33°54' W 118°29'0 0.1
2016-Mar-31 00:31N 33°54' W 118°29'0 0.1
2016-Mar-30 23:28N 33°54' W 118°29'0 0.1
2016-Mar-30 22:28N 33°55' W 118°29'0 0.0
2016-Mar-30 21:31N 33°55' W 118°29'0 0.0
2016-Mar-30 20:31N 33°55' W 118°29'0 0.1
2016-Mar-30 19:31N 33°54' W 118°29'1 1.2
2016-Mar-30 18:33N 33°53' W 118°30'45 8.8
2016-Mar-30 13:24N 33°15' W 118°02'  
Track history (hours):
 
Tides and Currents Weather Stations Pressure Air Temp Water Temp Dewpoint Dewpoint Depression Visibility Wind Speed Wind Dir Waves Ship Positions

Maran Poseidon

Last reported at 2016-Apr-09 13:09 UTC. Time now 2016-Apr-30 20:44 UTC.
Position N 32°41' W 118°13'.
Warning: this ship's position is 21 days out of date.

Length 274 m; draft 16.7 m.

Type: Tanker. MMSI: 240959000.

Date/timePositionNaut miles runAvg speedWind from/ knotsBaromVisibWave heightAir tempDewpointWater temp
2016-Apr-09 13:09N 32°41' W 118°13'711.7
2016-Apr-09 12:34N 32°48' W 118°12'2 2.1
2016-Apr-09 11:34N 32°50' W 118°12'0 0.5
2016-Apr-09 10:33N 32°50' W 118°12'1 0.6
2016-Apr-09 09:33N 32°49' W 118°12'0 0.5
2016-Apr-09 08:34N 32°49' W 118°12'0 0.2
2016-Apr-09 07:33N 32°49' W 118°12'2 1.7
2016-Apr-09 06:33N 32°47' W 118°11'1211.6
2016-Apr-09 05:33N 32°37' W 118°18'87 2.0
2016-Apr-07 09:04N 31°10' W 118°23'1 1.3
2016-Apr-07 08:33N 31°11' W 118°23'2 2.1
2016-Apr-07 07:33N 31°12' W 118°25'1 1.2
2016-Apr-07 06:34N 31°13' W 118°26'2 1.9
2016-Apr-07 05:34N 31°14' W 118°28'1 1.2
2016-Apr-07 04:22N 31°15' W 118°29'1 1.6
2016-Apr-07 03:32N 31°16' W 118°30'2 2.0
2016-Apr-07 02:33N 31°17' W 118°31'2 2.4
2016-Apr-07 01:33N 31°19' W 118°34'2 2.0
2016-Apr-07 00:34N 31°20' W 118°36'3 2.5
2016-Apr-06 23:34N 31°21' W 118°38'2 2.3
2016-Apr-06 22:33N 31°22' W 118°40'2 2.0
2016-Apr-06 21:31N 31°24' W 118°42'3 2.6
2016-Apr-06 20:33N 31°25' W 118°45'3 2.9
2016-Apr-06 19:33N 31°27' W 118°48'5 5.4
2016-Apr-06 18:34N 31°30' W 118°53'5 5.2
2016-Apr-06 17:33N 31°33' W 118°58'3 2.9
2016-Apr-06 16:34N 31°34' W 119°01'2 2.3
2016-Apr-06 15:33N 31°35' W 119°03'2 2.0
2016-Apr-06 14:33N 31°36' W 119°05'2 2.1
2016-Apr-06 13:34N 31°37' W 119°08'2 1.9
2016-Apr-06 12:31N 31°37' W 119°10'2 1.8
2016-Apr-06 11:33N 31°38' W 119°11'2 1.8
2016-Apr-06 10:34N 31°39' W 119°13'2 2.1
2016-Apr-06 09:34N 31°39' W 119°16'2 2.2
2016-Apr-06 08:34N 31°40' W 119°18'2 2.0
2016-Apr-06 07:33N 31°41' W 119°20'2 1.8
2016-Apr-06 06:34N 31°42' W 119°22'2 1.7
2016-Apr-06 05:33N 31°43' W 119°24'2 1.5
2016-Apr-06 04:34N 31°44' W 119°25'2 1.7
2016-Apr-06 03:34N 31°45' W 119°26'2 1.9
2016-Apr-06 02:33N 31°47' W 119°28'2 2.0
2016-Apr-06 01:33N 31°48' W 119°29'2 1.9
2016-Apr-06 00:33N 31°50' W 119°30'2 1.9
2016-Apr-05 23:34N 31°51' W 119°32'2 2.0
2016-Apr-05 22:34N 31°53' W 119°33'2 2.1
2016-Apr-05 21:33N 31°54' W 119°35'2 2.3
2016-Apr-05 20:33N 31°56' W 119°37'3 2.9
2016-Apr-05 19:34N 31°58' W 119°39'3 2.8
2016-Apr-05 18:34N 31°60' W 119°42'3 2.9
2016-Apr-05 17:34N 32°02' W 119°44'4 4.4
2016-Apr-05 16:34N 32°06' W 119°47'6 6.1
2016-Apr-05 15:33N 32°11' W 119°51'3 2.9
2016-Apr-05 14:34N 32°13' W 119°53'6 2.4
2016-Apr-05 12:06N 32°17' W 119°58'2 2.9
2016-Apr-05 11:28N 32°18' W 119°60'2 2.5
2016-Apr-05 10:34N 32°19' W 120°02'4 3.8
2016-Apr-05 09:33N 32°23' W 120°03'3 2.2
2016-Apr-05 08:22N 32°20' W 120°03'4 4.7
2016-Apr-05 07:34N 32°17' W 119°59'2 2.0
2016-Apr-05 06:34N 32°16' W 119°58'2 2.0
2016-Apr-05 05:34N 32°18' W 119°58'3 2.5
2016-Apr-05 04:30N 32°20' W 119°56'3013.7
2016-Apr-05 02:18N 32°22' W 119°20'1013.6
2016-Apr-05 01:33N 32°22' W 119°08'1413.8
2016-Apr-05 00:34N 32°22' W 118°52'1413.8
2016-Apr-04 23:34N 32°28' W 118°37'1414.0
2016-Apr-04 22:33N 32°35' W 118°23'1313.5
2016-Apr-04 21:33N 32°40' W 118°08'1312.6
2016-Apr-04 20:34N 32°52' W 118°05'1313.1
2016-Apr-04 19:33N 33°05' W 118°06'1211.9
2016-Apr-04 18:33N 33°17' W 118°06'1212.0
2016-Apr-04 17:33N 33°29' W 118°11'1110.6
2016-Apr-04 16:33N 33°39' W 118°12'5 4.7
2016-Apr-04 15:31N 33°44' W 118°13'0 0.0
2016-Apr-04 14:31N 33°44' W 118°13'0 0.1
2016-Apr-04 13:31N 33°44' W 118°13'0 0.1
2016-Apr-04 12:31N 33°44' W 118°13'0 0.1
2016-Apr-04 11:31N 33°44' W 118°13'0 0.0
2016-Apr-04 10:31N 33°44' W 118°13'0 0.0
2016-Apr-04 09:31N 33°44' W 118°13'0 0.1
2016-Apr-04 08:31N 33°44' W 118°13'0 0.1
2016-Apr-04 07:31N 33°44' W 118°13'0 0.0
2016-Apr-04 06:31N 33°44' W 118°13'0 0.1
2016-Apr-04 05:31N 33°44' W 118°13'0 0.0
2016-Apr-04 04:31N 33°44' W 118°13'0 0.0
2016-Apr-04 03:31N 33°44' W 118°13'0 0.1
2016-Apr-04 02:31N 33°44' W 118°13'0 0.1
2016-Apr-04 01:31N 33°44' W 118°13'0 0.0
2016-Apr-04 00:31N 33°44' W 118°13'0 0.0
2016-Apr-03 23:31N 33°44' W 118°13'0 0.1
2016-Apr-03 22:31N 33°44' W 118°13'0 0.0
2016-Apr-03 21:31N 33°44' W 118°13'0 0.0
2016-Apr-03 20:31N 33°44' W 118°13'0 0.0
2016-Apr-03 19:31N 33°44' W 118°13'0 0.0
2016-Apr-03 18:31N 33°44' W 118°13'0 0.0
2016-Apr-03 17:31N 33°44' W 118°13'0 0.1
2016-Apr-03 16:31N 33°44' W 118°13'0 0.1
2016-Apr-03 15:31N 33°44' W 118°13'0 0.1
2016-Apr-03 14:31N 33°44' W 118°13'0 0.0
2016-Apr-03 13:31N 33°44' W 118°13'0 0.1
2016-Apr-03 12:31N 33°44' W 118°13'0 0.1
2016-Apr-03 11:31N 33°44' W 118°13'0 0.0
2016-Apr-03 10:31N 33°44' W 118°13'0 0.0
2016-Apr-03 09:31N 33°44' W 118°13'0 0.1
2016-Apr-03 08:31N 33°44' W 118°13'0 0.1
2016-Apr-03 07:31N 33°44' W 118°13'0 0.1
2016-Apr-03 06:34N 33°44' W 118°13'0 0.1
2016-Apr-03 05:34N 33°44' W 118°13'0 0.1
2016-Apr-03 04:34N 33°44' W 118°13'0 0.1
2016-Apr-03 03:33N 33°44' W 118°13'0 0.1
2016-Apr-03 02:34N 33°44' W 118°13'0 0.1
2016-Apr-03 01:34N 33°44' W 118°13'0 0.0
2016-Apr-03 00:33N 33°44' W 118°13'0 0.1
2016-Apr-02 23:34N 33°44' W 118°13'0 0.0
2016-Apr-02 22:33N 33°44' W 118°13'0 0.1
2016-Apr-02 21:34N 33°44' W 118°13'0 0.1
2016-Apr-02 20:34N 33°44' W 118°13'0 0.1
2016-Apr-02 19:34N 33°44' W 118°13'0 0.1
2016-Apr-02 18:33N 33°44' W 118°13'0 0.1
2016-Apr-02 17:33N 33°44' W 118°13'0 0.1
2016-Apr-02 16:34N 33°44' W 118°13'0 0.2
2016-Apr-02 15:34N 33°44' W 118°13'1 0.6
2016-Apr-02 14:33N 33°44' W 118°13'6 5.7
2016-Apr-02 13:34N 33°38' W 118°12'6 5.8
2016-Apr-02 12:34N 33°36' W 118°19'7 6.9
2016-Apr-02 11:34N 33°39' W 118°26'7 6.6
2016-Apr-02 10:33N 33°44' W 118°30'8 7.8
2016-Apr-02 09:33N 33°52' W 118°30'3 2.9
2016-Apr-02 08:34N 33°55' W 118°28'1 1.2
2016-Apr-02 07:33N 33°54' W 118°27'0 0.1
2016-Apr-02 06:33N 33°54' W 118°27'0 0.0
2016-Apr-02 05:33N 33°54' W 118°27'0 0.0
2016-Apr-02 04:33N 33°54' W 118°27'0 0.0
2016-Apr-02 03:33N 33°54' W 118°27'0 0.0
2016-Apr-02 02:33N 33°54' W 118°27'0 0.0
2016-Apr-02 01:33N 33°54' W 118°27'0 0.0
2016-Apr-02 00:30N 33°54' W 118°27'0 0.0
2016-Apr-01 23:33N 33°54' W 118°27'0 0.0
2016-Apr-01 22:33N 33°54' W 118°27'0 0.0
2016-Apr-01 21:33N 33°54' W 118°27'0 0.0
2016-Apr-01 20:30N 33°54' W 118°27'0 0.0
2016-Apr-01 19:33N 33°54' W 118°27'0 0.0
2016-Apr-01 18:33N 33°54' W 118°27'0 0.0
2016-Apr-01 17:33N 33°54' W 118°27'0 0.0
2016-Apr-01 16:33N 33°54' W 118°27'0 0.0
2016-Apr-01 15:33N 33°54' W 118°27'0 0.0
2016-Apr-01 14:33N 33°54' W 118°27'0 0.0
2016-Apr-01 13:33N 33°54' W 118°27'0 0.0
2016-Apr-01 12:33N 33°54' W 118°27'0 0.0
2016-Apr-01 11:33N 33°54' W 118°27'0 0.0
2016-Apr-01 10:33N 33°54' W 118°27'0 0.0
2016-Apr-01 09:33N 33°54' W 118°27'0 0.0
2016-Apr-01 08:30N 33°54' W 118°27'0 0.0
2016-Apr-01 07:33N 33°54' W 118°27'0 0.0
2016-Apr-01 06:33N 33°54' W 118°27'0 0.0
2016-Apr-01 05:33N 33°54' W 118°27'0 0.0
2016-Apr-01 04:33N 33°54' W 118°27'0 0.0
2016-Apr-01 03:33N 33°54' W 118°27'0 0.0
2016-Apr-01 02:33N 33°54' W 118°27'0 0.0
2016-Apr-01 01:33N 33°54' W 118°27'0 0.0
2016-Apr-01 00:33N 33°54' W 118°27'0 0.0
2016-Mar-31 23:33N 33°54' W 118°27'0 0.0
2016-Mar-31 22:33N 33°54' W 118°27'0 0.0
2016-Mar-31 21:33N 33°54' W 118°27'0 0.0
2016-Mar-31 20:33N 33°54' W 118°27'0 0.0
2016-Mar-31 19:33N 33°54' W 118°27'0 0.0
2016-Mar-31 18:33N 33°54' W 118°27'0 0.0
2016-Mar-31 17:33N 33°54' W 118°27'0 0.0
2016-Mar-31 16:33N 33°54' W 118°27'1 1.0
2016-Mar-31 15:33N 33°53' W 118°28'2 1.9
2016-Mar-31 14:31N 33°55' W 118°29'0 0.1
2016-Mar-31 13:31N 33°55' W 118°29'0 0.0
2016-Mar-31 12:28N 33°55' W 118°29'0 0.1
2016-Mar-31 11:31N 33°55' W 118°29'0 0.0
2016-Mar-31 10:31N 33°55' W 118°29'0 0.0
2016-Mar-31 09:31N 33°55' W 118°29'0 0.1
2016-Mar-31 08:31N 33°55' W 118°29'0 0.2
2016-Mar-31 07:31N 33°55' W 118°29'0 0.1
2016-Mar-31 06:31N 33°54' W 118°29'0 0.0
2016-Mar-31 05:31N 33°54' W 118°29'0 0.1
2016-Mar-31 04:31N 33°55' W 118°29'0 0.0
2016-Mar-31 03:31N 33°55' W 118°29'0 0.1
2016-Mar-31 02:31N 33°54' W 118°29'0 0.0
2016-Mar-31 01:25N 33°54' W 118°29'0 0.1
2016-Mar-31 00:31N 33°54' W 118°29'0 0.1
2016-Mar-30 23:28N 33°54' W 118°29'0 0.1
2016-Mar-30 22:28N 33°55' W 118°29'0 0.0
2016-Mar-30 21:31N 33°55' W 118°29'0 0.0
2016-Mar-30 20:31N 33°55' W 118°29'0 0.1
2016-Mar-30 19:31N 33°54' W 118°29'1 1.2
2016-Mar-30 18:33N 33°53' W 118°30'45 8.8
2016-Mar-30 13:24N 33°15' W 118°02'  

Dump ship's entire track history